sensor_id;sensor_type;location;lat;lon;timestamp;P1;durP1;ratioP1;P2;durP2;ratioP2
36247;SDS011;22287;50.824;5.644;2023-03-14T00:00:10;3.25;;;0.63;;
36247;SDS011;22287;50.824;5.644;2023-03-14T00:02:40;3.97;;;0.95;;
36247;SDS011;22287;50.824;5.644;2023-03-14T00:05:07;2.00;;;0.40;;
36247;SDS011;22287;50.824;5.644;2023-03-14T00:07:35;3.28;;;0.35;;
36247;SDS011;22287;50.824;5.644;2023-03-14T00:10:04;3.60;;;0.55;;
36247;SDS011;22287;50.824;5.644;2023-03-14T00:12:33;4.68;;;0.68;;
36247;SDS011;22287;50.824;5.644;2023-03-14T00:15:00;5.72;;;1.40;;
36247;SDS011;22287;50.824;5.644;2023-03-14T00:17:30;5.32;;;0.93;;
36247;SDS011;22287;50.824;5.644;2023-03-14T00:19:57;2.40;;;0.75;;
36247;SDS011;22287;50.824;5.644;2023-03-14T00:22:31;2.78;;;0.70;;
36247;SDS011;22287;50.824;5.644;2023-03-14T00:24:58;8.30;;;1.08;;
36247;SDS011;22287;50.824;5.644;2023-03-14T00:27:25;7.93;;;1.00;;
36247;SDS011;22287;50.824;5.644;2023-03-14T00:29:52;6.53;;;1.00;;
36247;SDS011;22287;50.824;5.644;2023-03-14T00:32:19;3.92;;;0.70;;
36247;SDS011;22287;50.824;5.644;2023-03-14T00:34:46;4.47;;;0.77;;
36247;SDS011;22287;50.824;5.644;2023-03-14T00:37:13;4.78;;;0.95;;
36247;SDS011;22287;50.824;5.644;2023-03-14T00:39:42;4.93;;;0.70;;
36247;SDS011;22287;50.824;5.644;2023-03-14T00:42:09;5.88;;;1.67;;
36247;SDS011;22287;50.824;5.644;2023-03-14T00:44:37;5.10;;;0.65;;
36247;SDS011;22287;50.824;5.644;2023-03-14T00:47:06;5.40;;;1.02;;
36247;SDS011;22287;50.824;5.644;2023-03-14T00:49:33;5.72;;;0.80;;
36247;SDS011;22287;50.824;5.644;2023-03-14T00:52:00;6.53;;;1.35;;
36247;SDS011;22287;50.824;5.644;2023-03-14T00:54:26;2.70;;;0.63;;
36247;SDS011;22287;50.824;5.644;2023-03-14T00:56:54;4.18;;;0.85;;
36247;SDS011;22287;50.824;5.644;2023-03-14T00:59:22;8.77;;;0.90;;
36247;SDS011;22287;50.824;5.644;2023-03-14T01:01:49;2.10;;;0.50;;
36247;SDS011;22287;50.824;5.644;2023-03-14T01:04:16;3.97;;;0.63;;
36247;SDS011;22287;50.824;5.644;2023-03-14T01:06:43;3.15;;;0.50;;
36247;SDS011;22287;50.824;5.644;2023-03-14T01:09:11;3.10;;;0.70;;
36247;SDS011;22287;50.824;5.644;2023-03-14T01:11:37;2.60;;;0.80;;
36247;SDS011;22287;50.824;5.644;2023-03-14T01:14:04;5.30;;;0.80;;
36247;SDS011;22287;50.824;5.644;2023-03-14T01:16:33;4.07;;;0.50;;
36247;SDS011;22287;50.824;5.644;2023-03-14T01:19:02;5.55;;;0.63;;
36247;SDS011;22287;50.824;5.644;2023-03-14T01:21:31;3.70;;;0.38;;
36247;SDS011;22287;50.824;5.644;2023-03-14T01:24:00;3.45;;;0.60;;
36247;SDS011;22287;50.824;5.644;2023-03-14T01:26:29;6.25;;;0.70;;
36247;SDS011;22287;50.824;5.644;2023-03-14T01:28:58;6.68;;;1.00;;
36247;SDS011;22287;50.824;5.644;2023-03-14T01:31:26;5.30;;;0.80;;
36247;SDS011;22287;50.824;5.644;2023-03-14T01:33:54;3.15;;;0.80;;
36247;SDS011;22287;50.824;5.644;2023-03-14T01:36:21;5.43;;;0.75;;
36247;SDS011;22287;50.824;5.644;2023-03-14T01:38:49;4.03;;;0.90;;
36247;SDS011;22287;50.824;5.644;2023-03-14T01:41:23;4.82;;;0.75;;
36247;SDS011;22287;50.824;5.644;2023-03-14T01:43:54;4.18;;;0.90;;
36247;SDS011;22287;50.824;5.644;2023-03-14T01:46:24;3.25;;;0.82;;
36247;SDS011;22287;50.824;5.644;2023-03-14T01:54:21;5.47;;;1.35;;
36247;SDS011;22287;50.824;5.644;2023-03-14T01:57:00;7.78;;;0.90;;
36247;SDS011;22287;50.824;5.644;2023-03-14T01:59:30;9.23;;;1.02;;
36247;SDS011;22287;50.824;5.644;2023-03-14T02:01:59;6.10;;;0.82;;
36247;SDS011;22287;50.824;5.644;2023-03-14T02:04:30;6.15;;;1.83;;
36247;SDS011;22287;50.824;5.644;2023-03-14T02:10:12;5.45;;;1.00;;
36247;SDS011;22287;50.824;5.644;2023-03-14T02:12:42;7.63;;;1.48;;
36247;SDS011;22287;50.824;5.644;2023-03-14T02:15:19;6.28;;;1.25;;
36247;SDS011;22287;50.824;5.644;2023-03-14T02:17:56;8.88;;;1.40;;
36247;SDS011;22287;50.824;5.644;2023-03-14T02:20:41;9.52;;;1.23;;
36247;SDS011;22287;50.824;5.644;2023-03-14T02:23:16;8.43;;;0.95;;
36247;SDS011;22287;50.824;5.644;2023-03-14T02:28:46;11.10;;;1.75;;
36247;SDS011;22287;50.824;5.644;2023-03-14T02:31:13;8.90;;;1.33;;
36247;SDS011;22287;50.824;5.644;2023-03-14T02:33:41;7.97;;;1.27;;
36247;SDS011;22287;50.824;5.644;2023-03-14T02:36:09;4.75;;;0.95;;
36247;SDS011;22287;50.824;5.644;2023-03-14T02:41:43;6.65;;;1.15;;
36247;SDS011;22287;50.824;5.644;2023-03-14T02:44:11;9.93;;;1.40;;
36247;SDS011;22287;50.824;5.644;2023-03-14T02:46:52;5.65;;;1.33;;
36247;SDS011;22287;50.824;5.644;2023-03-14T02:49:20;8.55;;;1.65;;
36247;SDS011;22287;50.824;5.644;2023-03-14T02:51:47;7.75;;;1.30;;
36247;SDS011;22287;50.824;5.644;2023-03-14T02:54:15;5.60;;;1.23;;
36247;SDS011;22287;50.824;5.644;2023-03-14T02:56:43;4.80;;;1.00;;
36247;SDS011;22287;50.824;5.644;2023-03-14T02:59:11;8.38;;;1.27;;
36247;SDS011;22287;50.824;5.644;2023-03-14T03:01:49;6.75;;;1.92;;
36247;SDS011;22287;50.824;5.644;2023-03-14T03:04:16;11.68;;;2.45;;
36247;SDS011;22287;50.824;5.644;2023-03-14T03:06:45;8.40;;;1.50;;
36247;SDS011;22287;50.824;5.644;2023-03-14T03:09:12;5.57;;;1.23;;
36247;SDS011;22287;50.824;5.644;2023-03-14T03:11:39;2.97;;;0.85;;
36247;SDS011;22287;50.824;5.644;2023-03-14T03:14:09;6.75;;;1.40;;
36247;SDS011;22287;50.824;5.644;2023-03-14T03:16:35;8.82;;;1.45;;
36247;SDS011;22287;50.824;5.644;2023-03-14T03:19:03;8.32;;;1.55;;
36247;SDS011;22287;50.824;5.644;2023-03-14T03:21:30;6.70;;;1.15;;
36247;SDS011;22287;50.824;5.644;2023-03-14T03:24:15;5.13;;;1.15;;
36247;SDS011;22287;50.824;5.644;2023-03-14T03:26:43;8.40;;;1.50;;
36247;SDS011;22287;50.824;5.644;2023-03-14T03:29:11;6.93;;;2.17;;
36247;SDS011;22287;50.824;5.644;2023-03-14T03:31:38;6.32;;;1.25;;
36247;SDS011;22287;50.824;5.644;2023-03-14T03:34:05;8.68;;;1.70;;
36247;SDS011;22287;50.824;5.644;2023-03-14T03:36:33;6.15;;;0.98;;
36247;SDS011;22287;50.824;5.644;2023-03-14T03:39:00;7.40;;;1.52;;
36247;SDS011;22287;50.824;5.644;2023-03-14T03:41:28;6.53;;;1.65;;
36247;SDS011;22287;50.824;5.644;2023-03-14T03:43:55;7.85;;;1.40;;
36247;SDS011;22287;50.824;5.644;2023-03-14T03:46:23;5.78;;;0.93;;
36247;SDS011;22287;50.824;5.644;2023-03-14T03:48:54;2.85;;;0.55;;
36247;SDS011;22287;50.824;5.644;2023-03-14T03:51:26;8.07;;;1.48;;
36247;SDS011;22287;50.824;5.644;2023-03-14T03:53:55;4.93;;;0.80;;
36247;SDS011;22287;50.824;5.644;2023-03-14T03:56:27;3.15;;;0.40;;
36247;SDS011;22287;50.824;5.644;2023-03-14T03:58:54;3.33;;;0.50;;
36247;SDS011;22287;50.824;5.644;2023-03-14T04:01:22;2.53;;;0.65;;
36247;SDS011;22287;50.824;5.644;2023-03-14T04:03:53;2.30;;;0.50;;
36247;SDS011;22287;50.824;5.644;2023-03-14T04:06:21;2.45;;;0.43;;
36247;SDS011;22287;50.824;5.644;2023-03-14T04:08:50;0.98;;;0.30;;
36247;SDS011;22287;50.824;5.644;2023-03-14T04:11:29;2.65;;;0.20;;
36247;SDS011;22287;50.824;5.644;2023-03-14T04:14:15;0.95;;;0.20;;
36247;SDS011;22287;50.824;5.644;2023-03-14T04:16:42;3.60;;;0.30;;
36247;SDS011;22287;50.824;5.644;2023-03-14T04:19:15;0.75;;;0.20;;
36247;SDS011;22287;50.824;5.644;2023-03-14T04:21:42;1.50;;;0.35;;
36247;SDS011;22287;50.824;5.644;2023-03-14T04:24:12;0.98;;;0.20;;
36247;SDS011;22287;50.824;5.644;2023-03-14T04:26:42;2.50;;;0.75;;
36247;SDS011;22287;50.824;5.644;2023-03-14T04:29:10;4.70;;;0.32;;
36247;SDS011;22287;50.824;5.644;2023-03-14T04:31:39;2.83;;;0.40;;
36247;SDS011;22287;50.824;5.644;2023-03-14T04:34:06;1.25;;;0.30;;
36247;SDS011;22287;50.824;5.644;2023-03-14T04:36:37;0.73;;;0.10;;
36247;SDS011;22287;50.824;5.644;2023-03-14T04:39:09;2.50;;;0.52;;
36247;SDS011;22287;50.824;5.644;2023-03-14T04:41:40;1.17;;;0.22;;
36247;SDS011;22287;50.824;5.644;2023-03-14T04:44:09;2.13;;;0.22;;
36247;SDS011;22287;50.824;5.644;2023-03-14T04:46:36;3.30;;;0.20;;
36247;SDS011;22287;50.824;5.644;2023-03-14T04:49:05;0.30;;;0.10;;
36247;SDS011;22287;50.824;5.644;2023-03-14T04:51:32;2.10;;;0.20;;
36247;SDS011;22287;50.824;5.644;2023-03-14T04:53:59;1.00;;;0.15;;
36247;SDS011;22287;50.824;5.644;2023-03-14T04:56:26;1.52;;;0.10;;
36247;SDS011;22287;50.824;5.644;2023-03-14T04:58:54;1.08;;;0.10;;
36247;SDS011;22287;50.824;5.644;2023-03-14T05:01:21;0.50;;;0.10;;
36247;SDS011;22287;50.824;5.644;2023-03-14T05:04:17;0.55;;;0.00;;
36247;SDS011;22287;50.824;5.644;2023-03-14T05:06:55;0.17;;;0.08;;
36247;SDS011;22287;50.824;5.644;2023-03-14T05:09:33;0.45;;;0.00;;
36247;SDS011;22287;50.824;5.644;2023-03-14T05:12:01;0.88;;;0.10;;
36247;SDS011;22287;50.824;5.644;2023-03-14T05:14:47;0.82;;;0.10;;
36247;SDS011;22287;50.824;5.644;2023-03-14T05:17:27;1.60;;;0.03;;
36247;SDS011;22287;50.824;5.644;2023-03-14T05:20:10;0.75;;;0.10;;
36247;SDS011;22287;50.824;5.644;2023-03-14T05:22:52;1.27;;;0.10;;
36247;SDS011;22287;50.824;5.644;2023-03-14T05:25:43;0.15;;;0.05;;
36247;SDS011;22287;50.824;5.644;2023-03-14T05:28:37;0.98;;;0.03;;
36247;SDS011;22287;50.824;5.644;2023-03-14T05:31:30;1.25;;;0.10;;
36247;SDS011;22287;50.824;5.644;2023-03-14T05:34:09;0.65;;;0.43;;
36247;SDS011;22287;50.824;5.644;2023-03-14T05:36:55;0.65;;;0.20;;
36247;SDS011;22287;50.824;5.644;2023-03-14T05:39:45;0.77;;;0.05;;
36247;SDS011;22287;50.824;5.644;2023-03-14T05:42:44;1.08;;;0.10;;
36247;SDS011;22287;50.824;5.644;2023-03-14T05:45:37;0.28;;;0.10;;
36247;SDS011;22287;50.824;5.644;2023-03-14T05:48:33;0.32;;;0.10;;
36247;SDS011;22287;50.824;5.644;2023-03-14T05:51:31;0.63;;;0.30;;
36247;SDS011;22287;50.824;5.644;2023-03-14T05:54:16;2.22;;;0.20;;
36247;SDS011;22287;50.824;5.644;2023-03-14T05:56:56;0.77;;;0.22;;
36247;SDS011;22287;50.824;5.644;2023-03-14T05:59:23;1.35;;;0.30;;
36247;SDS011;22287;50.824;5.644;2023-03-14T06:02:29;1.38;;;0.25;;
36247;SDS011;22287;50.824;5.644;2023-03-14T06:05:05;1.23;;;0.22;;
36247;SDS011;22287;50.824;5.644;2023-03-14T06:07:32;2.58;;;0.45;;
36247;SDS011;22287;50.824;5.644;2023-03-14T06:09:59;0.50;;;0.20;;
36247;SDS011;22287;50.824;5.644;2023-03-14T06:12:27;1.45;;;0.32;;
36247;SDS011;22287;50.824;5.644;2023-03-14T06:14:55;0.55;;;0.20;;
36247;SDS011;22287;50.824;5.644;2023-03-14T06:17:21;0.40;;;0.20;;
36247;SDS011;22287;50.824;5.644;2023-03-14T06:19:58;0.85;;;0.20;;
36247;SDS011;22287;50.824;5.644;2023-03-14T06:22:26;0.73;;;0.08;;
36247;SDS011;22287;50.824;5.644;2023-03-14T06:24:53;1.23;;;0.28;;
36247;SDS011;22287;50.824;5.644;2023-03-14T06:27:21;0.95;;;0.13;;
36247;SDS011;22287;50.824;5.644;2023-03-14T06:29:51;0.30;;;0.20;;
36247;SDS011;22287;50.824;5.644;2023-03-14T06:32:18;0.70;;;0.43;;
36247;SDS011;22287;50.824;5.644;2023-03-14T06:34:48;0.47;;;0.20;;
36247;SDS011;22287;50.824;5.644;2023-03-14T06:37:17;0.43;;;0.10;;
36247;SDS011;22287;50.824;5.644;2023-03-14T06:39:46;0.38;;;0.10;;
36247;SDS011;22287;50.824;5.644;2023-03-14T06:42:24;1.77;;;0.30;;
36247;SDS011;22287;50.824;5.644;2023-03-14T06:44:53;2.15;;;0.40;;
36247;SDS011;22287;50.824;5.644;2023-03-14T06:47:20;0.77;;;0.30;;
36247;SDS011;22287;50.824;5.644;2023-03-14T06:49:47;0.63;;;0.28;;
36247;SDS011;22287;50.824;5.644;2023-03-14T06:52:16;0.63;;;0.40;;
36247;SDS011;22287;50.824;5.644;2023-03-14T06:54:43;0.40;;;0.28;;
36247;SDS011;22287;50.824;5.644;2023-03-14T06:57:10;0.28;;;0.17;;
36247;SDS011;22287;50.824;5.644;2023-03-14T06:59:37;0.82;;;0.50;;
36247;SDS011;22287;50.824;5.644;2023-03-14T07:02:05;0.73;;;0.30;;
36247;SDS011;22287;50.824;5.644;2023-03-14T07:04:34;7.00;;;0.50;;
36247;SDS011;22287;50.824;5.644;2023-03-14T07:07:01;2.55;;;0.45;;
36247;SDS011;22287;50.824;5.644;2023-03-14T07:09:32;2.05;;;0.60;;
36247;SDS011;22287;50.824;5.644;2023-03-14T07:12:00;0.63;;;0.40;;
36247;SDS011;22287;50.824;5.644;2023-03-14T07:14:28;2.38;;;0.57;;
36247;SDS011;22287;50.824;5.644;2023-03-14T07:16:55;0.93;;;0.50;;
36247;SDS011;22287;50.824;5.644;2023-03-14T07:19:22;1.67;;;0.68;;
36247;SDS011;22287;50.824;5.644;2023-03-14T07:21:49;1.50;;;0.30;;
36247;SDS011;22287;50.824;5.644;2023-03-14T07:24:21;4.32;;;0.80;;
36247;SDS011;22287;50.824;5.644;2023-03-14T07:26:48;1.70;;;0.45;;
36247;SDS011;22287;50.824;5.644;2023-03-14T07:29:14;1.73;;;0.43;;
36247;SDS011;22287;50.824;5.644;2023-03-14T07:31:45;1.08;;;0.70;;
36247;SDS011;22287;50.824;5.644;2023-03-14T07:36:44;2.63;;;0.60;;
36247;SDS011;22287;50.824;5.644;2023-03-14T07:39:10;2.47;;;0.70;;
36247;SDS011;22287;50.824;5.644;2023-03-14T07:41:40;1.38;;;0.57;;
36247;SDS011;22287;50.824;5.644;2023-03-14T07:44:25;1.65;;;0.68;;
36247;SDS011;22287;50.824;5.644;2023-03-14T07:46:53;1.30;;;0.63;;
36247;SDS011;22287;50.824;5.644;2023-03-14T07:49:28;1.38;;;0.50;;
36247;SDS011;22287;50.824;5.644;2023-03-14T07:51:55;0.80;;;0.50;;
36247;SDS011;22287;50.824;5.644;2023-03-14T07:54:21;0.95;;;0.40;;
36247;SDS011;22287;50.824;5.644;2023-03-14T07:56:50;3.03;;;0.73;;
36247;SDS011;22287;50.824;5.644;2023-03-14T07:59:18;1.95;;;0.70;;
36247;SDS011;22287;50.824;5.644;2023-03-14T08:01:45;2.58;;;0.45;;
36247;SDS011;22287;50.824;5.644;2023-03-14T08:04:12;1.55;;;0.50;;
36247;SDS011;22287;50.824;5.644;2023-03-14T08:06:39;1.65;;;0.50;;
36247;SDS011;22287;50.824;5.644;2023-03-14T08:09:06;1.23;;;0.38;;
36247;SDS011;22287;50.824;5.644;2023-03-14T08:11:33;1.15;;;0.30;;
36247;SDS011;22287;50.824;5.644;2023-03-14T08:14:00;0.93;;;0.30;;
36247;SDS011;22287;50.824;5.644;2023-03-14T08:16:27;2.33;;;0.20;;
36247;SDS011;22287;50.824;5.644;2023-03-14T08:18:53;3.67;;;0.30;;
36247;SDS011;22287;50.824;5.644;2023-03-14T08:21:20;1.63;;;0.63;;
36247;SDS011;22287;50.824;5.644;2023-03-14T08:23:47;2.00;;;0.70;;
36247;SDS011;22287;50.824;5.644;2023-03-14T08:26:14;0.80;;;0.57;;
36247;SDS011;22287;50.824;5.644;2023-03-14T08:28:45;0.98;;;0.60;;
36247;SDS011;22287;50.824;5.644;2023-03-14T08:31:11;1.20;;;0.65;;
36247;SDS011;22287;50.824;5.644;2023-03-14T08:33:38;1.20;;;0.77;;
36247;SDS011;22287;50.824;5.644;2023-03-14T08:36:05;0.70;;;0.60;;
36247;SDS011;22287;50.824;5.644;2023-03-14T08:38:33;0.73;;;0.50;;
36247;SDS011;22287;50.824;5.644;2023-03-14T08:41:00;1.40;;;0.50;;
36247;SDS011;22287;50.824;5.644;2023-03-14T08:43:28;1.58;;;0.60;;
36247;SDS011;22287;50.824;5.644;2023-03-14T08:45:58;1.02;;;0.32;;
36247;SDS011;22287;50.824;5.644;2023-03-14T08:48:26;0.95;;;0.50;;
36247;SDS011;22287;50.824;5.644;2023-03-14T08:50:56;0.95;;;0.30;;
36247;SDS011;22287;50.824;5.644;2023-03-14T08:53:24;1.02;;;0.47;;
36247;SDS011;22287;50.824;5.644;2023-03-14T08:55:54;2.10;;;1.15;;
36247;SDS011;22287;50.824;5.644;2023-03-14T08:58:21;1.40;;;1.20;;
36247;SDS011;22287;50.824;5.644;2023-03-14T09:00:50;2.05;;;1.27;;
36247;SDS011;22287;50.824;5.644;2023-03-14T09:03:17;2.30;;;1.45;;
36247;SDS011;22287;50.824;5.644;2023-03-14T09:05:44;2.35;;;1.30;;
36247;SDS011;22287;50.824;5.644;2023-03-14T09:08:11;2.30;;;1.27;;
36247;SDS011;22287;50.824;5.644;2023-03-14T09:10:38;2.13;;;0.80;;
36247;SDS011;22287;50.824;5.644;2023-03-14T09:13:05;2.67;;;1.33;;
36247;SDS011;22287;50.824;5.644;2023-03-14T09:15:32;3.20;;;1.08;;
36247;SDS011;22287;50.824;5.644;2023-03-14T09:18:00;1.67;;;1.00;;
36247;SDS011;22287;50.824;5.644;2023-03-14T09:20:28;4.50;;;1.27;;
36247;SDS011;22287;50.824;5.644;2023-03-14T09:22:54;4.32;;;1.25;;
36247;SDS011;22287;50.824;5.644;2023-03-14T09:25:22;3.33;;;1.58;;
36247;SDS011;22287;50.824;5.644;2023-03-14T09:27:49;2.13;;;1.42;;
36247;SDS011;22287;50.824;5.644;2023-03-14T09:30:16;1.83;;;1.48;;
36247;SDS011;22287;50.824;5.644;2023-03-14T09:32:43;1.95;;;1.70;;
36247;SDS011;22287;50.824;5.644;2023-03-14T09:35:10;3.40;;;1.88;;
36247;SDS011;22287;50.824;5.644;2023-03-14T09:37:37;3.30;;;1.70;;
36247;SDS011;22287;50.824;5.644;2023-03-14T09:40:04;4.32;;;1.38;;
36247;SDS011;22287;50.824;5.644;2023-03-14T09:42:37;3.15;;;1.77;;
36247;SDS011;22287;50.824;5.644;2023-03-14T09:45:06;2.17;;;1.63;;
36247;SDS011;22287;50.824;5.644;2023-03-14T09:47:42;2.03;;;1.50;;
36247;SDS011;22287;50.824;5.644;2023-03-14T09:50:24;2.58;;;1.80;;
36247;SDS011;22287;50.824;5.644;2023-03-14T09:52:55;3.15;;;1.75;;
36247;SDS011;22287;50.824;5.644;2023-03-14T09:55:25;3.30;;;1.65;;
36247;SDS011;22287;50.824;5.644;2023-03-14T09:57:59;2.67;;;1.70;;
36247;SDS011;22287;50.824;5.644;2023-03-14T10:00:30;1.80;;;1.38;;
36247;SDS011;22287;50.824;5.644;2023-03-14T10:05:40;3.85;;;1.27;;
36247;SDS011;22287;50.824;5.644;2023-03-14T10:08:11;2.40;;;1.35;;
36247;SDS011;22287;50.824;5.644;2023-03-14T10:10:39;2.95;;;1.35;;
36247;SDS011;22287;50.824;5.644;2023-03-14T10:15:52;2.58;;;1.45;;
36247;SDS011;22287;50.824;5.644;2023-03-14T10:18:21;3.97;;;1.50;;
36247;SDS011;22287;50.824;5.644;2023-03-14T10:21:16;1.38;;;0.98;;
36247;SDS011;22287;50.824;5.644;2023-03-14T10:23:47;2.17;;;1.20;;
36247;SDS011;22287;50.824;5.644;2023-03-14T10:26:18;1.75;;;0.90;;
36247;SDS011;22287;50.824;5.644;2023-03-14T10:28:53;5.47;;;1.27;;
36247;SDS011;22287;50.824;5.644;2023-03-14T10:31:34;1.38;;;0.90;;
36247;SDS011;22287;50.824;5.644;2023-03-14T10:34:17;3.10;;;0.75;;
36247;SDS011;22287;50.824;5.644;2023-03-14T10:36:52;2.42;;;0.70;;
36247;SDS011;22287;50.824;5.644;2023-03-14T10:39:25;0.80;;;0.52;;
36247;SDS011;22287;50.824;5.644;2023-03-14T10:42:02;1.85;;;0.65;;
36247;SDS011;22287;50.824;5.644;2023-03-14T10:44:30;1.00;;;0.57;;
36247;SDS011;22287;50.824;5.644;2023-03-14T10:47:00;3.15;;;0.82;;
36247;SDS011;22287;50.824;5.644;2023-03-14T10:49:33;5.57;;;0.70;;
36247;SDS011;22287;50.824;5.644;2023-03-14T10:52:12;2.88;;;0.70;;
36247;SDS011;22287;50.824;5.644;2023-03-14T10:54:48;3.67;;;0.60;;
36247;SDS011;22287;50.824;5.644;2023-03-14T10:57:20;0.82;;;0.65;;
36247;SDS011;22287;50.824;5.644;2023-03-14T10:59:47;1.80;;;0.40;;
36247;SDS011;22287;50.824;5.644;2023-03-14T11:05:01;1.88;;;0.50;;
36247;SDS011;22287;50.824;5.644;2023-03-14T11:07:40;0.77;;;0.20;;
36247;SDS011;22287;50.824;5.644;2023-03-14T11:10:20;0.32;;;0.20;;
36247;SDS011;22287;50.824;5.644;2023-03-14T11:21:41;0.80;;;0.25;;
36247;SDS011;22287;50.824;5.644;2023-03-14T11:26:59;0.40;;;0.10;;
36247;SDS011;22287;50.824;5.644;2023-03-14T11:29:36;1.30;;;0.20;;
36247;SDS011;22287;50.824;5.644;2023-03-14T11:32:10;2.30;;;0.20;;
36247;SDS011;22287;50.824;5.644;2023-03-14T11:34:58;0.82;;;0.30;;
36247;SDS011;22287;50.824;5.644;2023-03-14T11:37:33;1.90;;;0.28;;
36247;SDS011;22287;50.824;5.644;2023-03-14T11:40:13;1.48;;;0.40;;
36247;SDS011;22287;50.824;5.644;2023-03-14T11:42:46;1.10;;;0.40;;
36247;SDS011;22287;50.824;5.644;2023-03-14T11:45:18;1.55;;;0.60;;
36247;SDS011;22287;50.824;5.644;2023-03-14T11:47:53;2.38;;;1.00;;
36247;SDS011;22287;50.824;5.644;2023-03-14T11:50:29;1.60;;;0.80;;
36247;SDS011;22287;50.824;5.644;2023-03-14T11:52:58;1.27;;;0.70;;
36247;SDS011;22287;50.824;5.644;2023-03-14T11:55:41;2.28;;;0.80;;
36247;SDS011;22287;50.824;5.644;2023-03-14T11:58:11;1.27;;;0.82;;
36247;SDS011;22287;50.824;5.644;2023-03-14T12:00:39;1.40;;;1.00;;
36247;SDS011;22287;50.824;5.644;2023-03-14T12:06:24;1.70;;;0.50;;
36247;SDS011;22287;50.824;5.644;2023-03-14T12:08:56;1.60;;;0.43;;
36247;SDS011;22287;50.824;5.644;2023-03-14T12:11:30;1.05;;;0.40;;
36247;SDS011;22287;50.824;5.644;2023-03-14T12:13:58;2.05;;;0.40;;
36247;SDS011;22287;50.824;5.644;2023-03-14T12:16:30;1.63;;;0.40;;
36247;SDS011;22287;50.824;5.644;2023-03-14T12:22:35;1.33;;;0.30;;
36247;SDS011;22287;50.824;5.644;2023-03-14T12:30:47;0.40;;;0.20;;
36247;SDS011;22287;50.824;5.644;2023-03-14T12:35:47;1.00;;;0.40;;
36247;SDS011;22287;50.824;5.644;2023-03-14T12:38:40;0.80;;;0.28;;
36247;SDS011;22287;50.824;5.644;2023-03-14T12:43:45;2.58;;;0.57;;
36247;SDS011;22287;50.824;5.644;2023-03-14T12:48:45;1.00;;;0.40;;
36247;SDS011;22287;50.824;5.644;2023-03-14T12:51:19;0.70;;;0.47;;
36247;SDS011;22287;50.824;5.644;2023-03-14T12:56:42;0.82;;;0.55;;
36247;SDS011;22287;50.824;5.644;2023-03-14T13:10:22;1.88;;;0.57;;
36247;SDS011;22287;50.824;5.644;2023-03-14T13:15:24;0.80;;;0.70;;
36247;SDS011;22287;50.824;5.644;2023-03-14T13:17:53;1.10;;;0.60;;
36247;SDS011;22287;50.824;5.644;2023-03-14T13:20:30;0.90;;;0.60;;
36247;SDS011;22287;50.824;5.644;2023-03-14T13:23:03;1.65;;;0.60;;
36247;SDS011;22287;50.824;5.644;2023-03-14T13:25:31;5.28;;;1.40;;
36247;SDS011;22287;50.824;5.644;2023-03-14T13:28:00;5.03;;;1.00;;
36247;SDS011;22287;50.824;5.644;2023-03-14T13:30:36;2.28;;;0.73;;
36247;SDS011;22287;50.824;5.644;2023-03-14T13:33:11;4.97;;;0.88;;
36247;SDS011;22287;50.824;5.644;2023-03-14T13:35:41;3.88;;;1.25;;
36247;SDS011;22287;50.824;5.644;2023-03-14T13:38:19;6.50;;;1.67;;
36247;SDS011;22287;50.824;5.644;2023-03-14T13:40:49;6.72;;;1.20;;
36247;SDS011;22287;50.824;5.644;2023-03-14T13:43:39;5.40;;;1.27;;
36247;SDS011;22287;50.824;5.644;2023-03-14T13:46:13;6.45;;;1.30;;
36247;SDS011;22287;50.824;5.644;2023-03-14T13:48:44;2.88;;;1.17;;
36247;SDS011;22287;50.824;5.644;2023-03-14T13:51:15;5.38;;;1.55;;
36247;SDS011;22287;50.824;5.644;2023-03-14T13:53:51;5.07;;;1.20;;
36247;SDS011;22287;50.824;5.644;2023-03-14T13:56:20;8.02;;;1.85;;
36247;SDS011;22287;50.824;5.644;2023-03-14T13:58:49;8.27;;;1.58;;
36247;SDS011;22287;50.824;5.644;2023-03-14T14:01:18;4.00;;;1.50;;
36247;SDS011;22287;50.824;5.644;2023-03-14T14:03:58;6.00;;;1.13;;
36247;SDS011;22287;50.824;5.644;2023-03-14T14:06:49;6.15;;;0.98;;
36247;SDS011;22287;50.824;5.644;2023-03-14T14:14:45;2.83;;;0.90;;
36247;SDS011;22287;50.824;5.644;2023-03-14T14:17:21;5.07;;;1.40;;
36247;SDS011;22287;50.824;5.644;2023-03-14T14:19:55;5.57;;;0.93;;
36247;SDS011;22287;50.824;5.644;2023-03-14T14:22:23;6.30;;;1.02;;
36247;SDS011;22287;50.824;5.644;2023-03-14T14:24:50;6.57;;;1.25;;
36247;SDS011;22287;50.824;5.644;2023-03-14T14:27:19;3.63;;;0.82;;
36247;SDS011;22287;50.824;5.644;2023-03-14T14:30:24;5.75;;;1.20;;
36247;SDS011;22287;50.824;5.644;2023-03-14T14:32:46;7.55;;;1.58;;
36247;SDS011;22287;50.824;5.644;2023-03-14T14:35:33;4.15;;;1.10;;
36247;SDS011;22287;50.824;5.644;2023-03-14T14:38:01;6.97;;;1.73;;
36247;SDS011;22287;50.824;5.644;2023-03-14T14:40:30;6.65;;;1.70;;
36247;SDS011;22287;50.824;5.644;2023-03-14T14:43:03;6.13;;;1.40;;
36247;SDS011;22287;50.824;5.644;2023-03-14T14:45:33;5.53;;;1.08;;
36247;SDS011;22287;50.824;5.644;2023-03-14T14:50:29;8.00;;;1.35;;
36247;SDS011;22287;50.824;5.644;2023-03-14T14:52:57;2.97;;;1.23;;
36247;SDS011;22287;50.824;5.644;2023-03-14T14:55:32;7.40;;;1.38;;
36247;SDS011;22287;50.824;5.644;2023-03-14T14:58:34;6.35;;;1.27;;
36247;SDS011;22287;50.824;5.644;2023-03-14T15:01:19;4.85;;;1.20;;
36247;SDS011;22287;50.824;5.644;2023-03-14T15:03:51;7.18;;;1.40;;
36247;SDS011;22287;50.824;5.644;2023-03-14T15:06:19;5.65;;;1.00;;
36247;SDS011;22287;50.824;5.644;2023-03-14T15:08:47;10.35;;;2.00;;
36247;SDS011;22287;50.824;5.644;2023-03-14T15:11:16;7.93;;;1.52;;
36247;SDS011;22287;50.824;5.644;2023-03-14T15:13:45;6.75;;;1.42;;
36247;SDS011;22287;50.824;5.644;2023-03-14T15:16:12;4.63;;;1.33;;
36247;SDS011;22287;50.824;5.644;2023-03-14T15:18:41;10.02;;;2.10;;
36247;SDS011;22287;50.824;5.644;2023-03-14T15:21:09;9.02;;;1.20;;
36247;SDS011;22287;50.824;5.644;2023-03-14T15:23:37;10.18;;;1.75;;
36247;SDS011;22287;50.824;5.644;2023-03-14T15:26:08;10.68;;;1.63;;
36247;SDS011;22287;50.824;5.644;2023-03-14T15:28:39;7.35;;;1.10;;
36247;SDS011;22287;50.824;5.644;2023-03-14T15:31:10;6.25;;;1.67;;
36247;SDS011;22287;50.824;5.644;2023-03-14T15:33:38;6.97;;;1.00;;
36247;SDS011;22287;50.824;5.644;2023-03-14T15:36:27;5.55;;;1.10;;
36247;SDS011;22287;50.824;5.644;2023-03-14T15:38:54;3.45;;;1.17;;
36247;SDS011;22287;50.824;5.644;2023-03-14T15:41:21;6.13;;;1.55;;
36247;SDS011;22287;50.824;5.644;2023-03-14T15:43:49;4.43;;;0.88;;
36247;SDS011;22287;50.824;5.644;2023-03-14T15:46:17;7.57;;;2.13;;
36247;SDS011;22287;50.824;5.644;2023-03-14T15:48:44;5.30;;;1.20;;
36247;SDS011;22287;50.824;5.644;2023-03-14T15:51:12;4.85;;;1.42;;
36247;SDS011;22287;50.824;5.644;2023-03-14T15:53:39;4.40;;;1.30;;
36247;SDS011;22287;50.824;5.644;2023-03-14T15:56:07;6.72;;;1.40;;
36247;SDS011;22287;50.824;5.644;2023-03-14T15:58:38;4.13;;;1.33;;
36247;SDS011;22287;50.824;5.644;2023-03-14T16:01:07;5.07;;;1.23;;
36247;SDS011;22287;50.824;5.644;2023-03-14T16:03:37;8.98;;;2.20;;
36247;SDS011;22287;50.824;5.644;2023-03-14T16:06:04;4.38;;;1.30;;
36247;SDS011;22287;50.824;5.644;2023-03-14T16:08:31;5.70;;;0.85;;
36247;SDS011;22287;50.824;5.644;2023-03-14T16:10:58;4.78;;;1.27;;
36247;SDS011;22287;50.824;5.644;2023-03-14T16:13:26;5.97;;;2.15;;
36247;SDS011;22287;50.824;5.644;2023-03-14T16:15:57;9.70;;;4.72;;
36247;SDS011;22287;50.824;5.644;2023-03-14T16:18:30;6.53;;;1.05;;
36247;SDS011;22287;50.824;5.644;2023-03-14T16:21:02;6.10;;;1.63;;
36247;SDS011;22287;50.824;5.644;2023-03-14T16:23:32;20.73;;;7.47;;
36247;SDS011;22287;50.824;5.644;2023-03-14T16:26:09;41.38;;;15.10;;
36247;SDS011;22287;50.824;5.644;2023-03-14T16:28:37;55.55;;;19.90;;
36247;SDS011;22287;50.824;5.644;2023-03-14T16:31:06;113.35;;;40.78;;
36247;SDS011;22287;50.824;5.644;2023-03-14T16:33:35;40.67;;;16.75;;